sensor_id;sensor_type;location;lat;lon;timestamp;pressure;altitude;pressure_sealevel;temperature;humidity
48862;BME280;34681;49.188;-0.374;2023-02-18T00:02:13;102702.38;;;14.01;68.31
48862;BME280;34681;49.188;-0.374;2023-02-18T00:04:39;102694.84;;;14.03;68.33
48862;BME280;34681;49.188;-0.374;2023-02-18T00:07:04;102688.88;;;14.10;68.08
48862;BME280;34681;49.188;-0.374;2023-02-18T00:09:29;102693.44;;;13.75;68.97
48862;BME280;34681;49.188;-0.374;2023-02-18T00:11:55;102697.94;;;13.76;68.99
48862;BME280;34681;49.188;-0.374;2023-02-18T00:14:20;102691.69;;;13.86;68.83
48862;BME280;34681;49.188;-0.374;2023-02-18T00:16:45;102689.97;;;13.96;68.92
48862;BME280;34681;49.188;-0.374;2023-02-18T00:19:14;102689.53;;;13.67;69.39
48862;BME280;34681;49.188;-0.374;2023-02-18T00:21:40;102687.84;;;13.53;69.81
48862;BME280;34681;49.188;-0.374;2023-02-18T00:24:06;102694.50;;;13.62;69.89
48862;BME280;34681;49.188;-0.374;2023-02-18T00:26:32;102693.56;;;13.74;69.50
48862;BME280;34681;49.188;-0.374;2023-02-18T00:28:58;102696.78;;;13.79;69.58
48862;BME280;34681;49.188;-0.374;2023-02-18T00:31:29;102689.28;;;13.81;69.61
48862;BME280;34681;49.188;-0.374;2023-02-18T00:33:56;102690.81;;;13.85;69.45
48862;BME280;34681;49.188;-0.374;2023-02-18T00:36:23;102683.97;;;13.91;69.09
48862;BME280;34681;49.188;-0.374;2023-02-18T00:38:51;102685.97;;;13.54;70.10
48862;BME280;34681;49.188;-0.374;2023-02-18T00:41:17;102690.88;;;13.61;70.12
48862;BME280;34681;49.188;-0.374;2023-02-18T00:43:43;102689.13;;;13.71;69.95
48862;BME280;34681;49.188;-0.374;2023-02-18T00:46:09;102691.41;;;13.66;70.15
48862;BME280;34681;49.188;-0.374;2023-02-18T00:48:34;102682.75;;;13.71;70.32
48862;BME280;34681;49.188;-0.374;2023-02-18T00:51:01;102683.75;;;13.70;70.36
48862;BME280;34681;49.188;-0.374;2023-02-18T00:53:27;102681.91;;;13.82;70.11
48862;BME280;34681;49.188;-0.374;2023-02-18T00:55:53;102683.03;;;13.79;70.26
48862;BME280;34681;49.188;-0.374;2023-02-18T00:58:18;102682.63;;;13.72;70.52
48862;BME280;34681;49.188;-0.374;2023-02-18T01:00:44;102667.50;;;13.67;70.71
48862;BME280;34681;49.188;-0.374;2023-02-18T01:03:10;102668.41;;;13.78;70.11
48862;BME280;34681;49.188;-0.374;2023-02-18T01:05:37;102663.34;;;13.61;70.71
48862;BME280;34681;49.188;-0.374;2023-02-18T01:08:03;102662.97;;;13.55;71.13
48862;BME280;34681;49.188;-0.374;2023-02-18T01:10:29;102654.91;;;13.75;70.62
48862;BME280;34681;49.188;-0.374;2023-02-18T01:12:55;102669.53;;;13.76;70.51
48862;BME280;34681;49.188;-0.374;2023-02-18T01:15:21;102655.03;;;13.85;70.05
48862;BME280;34681;49.188;-0.374;2023-02-18T01:17:46;102653.53;;;13.81;70.24
48862;BME280;34681;49.188;-0.374;2023-02-18T01:20:13;102657.53;;;13.77;70.40
48862;BME280;34681;49.188;-0.374;2023-02-18T01:22:38;102657.19;;;13.93;69.82
48862;BME280;34681;49.188;-0.374;2023-02-18T01:25:04;102649.06;;;14.02;69.52
48862;BME280;34681;49.188;-0.374;2023-02-18T01:27:29;102640.56;;;13.94;69.81
48862;BME280;34681;49.188;-0.374;2023-02-18T01:29:55;102643.28;;;13.83;69.84
48862;BME280;34681;49.188;-0.374;2023-02-18T01:32:20;102637.53;;;13.75;69.95
48862;BME280;34681;49.188;-0.374;2023-02-18T01:34:45;102634.09;;;13.60;70.17
48862;BME280;34681;49.188;-0.374;2023-02-18T01:37:11;102633.63;;;13.66;70.28
48862;BME280;34681;49.188;-0.374;2023-02-18T01:39:37;102642.91;;;13.76;69.95
48862;BME280;34681;49.188;-0.374;2023-02-18T01:42:03;102636.09;;;13.58;70.35
48862;BME280;34681;49.188;-0.374;2023-02-18T01:44:28;102640.63;;;13.70;69.99
48862;BME280;34681;49.188;-0.374;2023-02-18T01:46:54;102629.47;;;13.61;70.06
48862;BME280;34681;49.188;-0.374;2023-02-18T01:49:27;102634.56;;;13.54;70.38
48862;BME280;34681;49.188;-0.374;2023-02-18T01:51:59;102629.13;;;13.76;69.79
48862;BME280;34681;49.188;-0.374;2023-02-18T01:54:35;102639.31;;;13.52;70.04
48862;BME280;34681;49.188;-0.374;2023-02-18T01:59:43;102635.56;;;13.42;70.22
48862;BME280;34681;49.188;-0.374;2023-02-18T02:02:13;102632.81;;;13.42;70.33
48862;BME280;34681;49.188;-0.374;2023-02-18T02:04:40;102631.34;;;13.49;69.72
48862;BME280;34681;49.188;-0.374;2023-02-18T02:07:06;102625.06;;;13.47;69.80
48862;BME280;34681;49.188;-0.374;2023-02-18T02:09:33;102635.09;;;13.59;69.47
48862;BME280;34681;49.188;-0.374;2023-02-18T02:12:31;102632.09;;;13.62;69.59
48862;BME280;34681;49.188;-0.374;2023-02-18T02:36:37;102608.06;;;13.53;69.58
48862;BME280;34681;49.188;-0.374;2023-02-18T02:39:33;102611.72;;;13.65;69.02
48862;BME280;34681;49.188;-0.374;2023-02-18T02:45:22;102601.31;;;13.46;69.37
48862;BME280;34681;49.188;-0.374;2023-02-18T02:53:16;102603.38;;;13.66;68.67
48862;BME280;34681;49.188;-0.374;2023-02-18T02:55:44;102608.81;;;13.44;69.37
48862;BME280;34681;49.188;-0.374;2023-02-18T02:58:14;102606.13;;;13.66;68.97
48862;BME280;34681;49.188;-0.374;2023-02-18T03:04:17;102602.84;;;13.72;68.71
48862;BME280;34681;49.188;-0.374;2023-02-18T03:06:27;102601.38;;;13.68;68.63
48862;BME280;34681;49.188;-0.374;2023-02-18T03:11:31;102598.63;;;13.80;68.29
48862;BME280;34681;49.188;-0.374;2023-02-18T03:14:09;102594.19;;;13.55;68.76
48862;BME280;34681;49.188;-0.374;2023-02-18T03:17:00;102590.97;;;13.49;69.04
48862;BME280;34681;49.188;-0.374;2023-02-18T03:19:37;102588.75;;;13.31;69.65
48862;BME280;34681;49.188;-0.374;2023-02-18T03:22:08;102594.66;;;13.37;69.21
48862;BME280;34681;49.188;-0.374;2023-02-18T03:24:39;102588.91;;;13.40;69.23
48862;BME280;34681;49.188;-0.374;2023-02-18T03:27:24;102592.94;;;13.47;68.92
48862;BME280;34681;49.188;-0.374;2023-02-18T03:30:21;102586.88;;;13.66;68.37
48862;BME280;34681;49.188;-0.374;2023-02-18T03:32:51;102583.00;;;13.80;68.13
48862;BME280;34681;49.188;-0.374;2023-02-18T03:35:21;102590.09;;;13.71;68.14
48862;BME280;34681;49.188;-0.374;2023-02-18T03:37:50;102587.06;;;13.52;68.64
48862;BME280;34681;49.188;-0.374;2023-02-18T03:40:17;102589.28;;;13.36;69.02
48862;BME280;34681;49.188;-0.374;2023-02-18T03:42:43;102593.50;;;13.05;69.96
48862;BME280;34681;49.188;-0.374;2023-02-18T03:45:09;102585.00;;;13.32;69.88
48862;BME280;34681;49.188;-0.374;2023-02-18T03:47:34;102589.34;;;13.58;68.92
48862;BME280;34681;49.188;-0.374;2023-02-18T03:50:00;102584.94;;;13.56;68.98
48862;BME280;34681;49.188;-0.374;2023-02-18T03:52:26;102577.81;;;13.42;69.34
48862;BME280;34681;49.188;-0.374;2023-02-18T03:54:51;102580.91;;;13.48;69.36
48862;BME280;34681;49.188;-0.374;2023-02-18T03:57:17;102574.59;;;13.59;68.89
48862;BME280;34681;49.188;-0.374;2023-02-18T03:59:42;102573.22;;;13.65;68.44
48862;BME280;34681;49.188;-0.374;2023-02-18T04:02:07;102585.81;;;13.45;69.07
48862;BME280;34681;49.188;-0.374;2023-02-18T04:04:33;102582.19;;;13.44;69.29
48862;BME280;34681;49.188;-0.374;2023-02-18T04:06:58;102588.56;;;13.45;69.34
48862;BME280;34681;49.188;-0.374;2023-02-18T04:09:24;102584.38;;;13.28;69.70
48862;BME280;34681;49.188;-0.374;2023-02-18T04:11:49;102584.81;;;13.46;69.28
48862;BME280;34681;49.188;-0.374;2023-02-18T04:14:14;102591.22;;;13.58;68.97
48862;BME280;34681;49.188;-0.374;2023-02-18T04:16:40;102587.94;;;13.53;69.25
48862;BME280;34681;49.188;-0.374;2023-02-18T04:19:06;102586.22;;;13.63;69.00
48862;BME280;34681;49.188;-0.374;2023-02-18T04:21:32;102593.38;;;13.88;68.23
48862;BME280;34681;49.188;-0.374;2023-02-18T04:23:58;102581.09;;;13.69;68.81
48862;BME280;34681;49.188;-0.374;2023-02-18T04:26:24;102585.72;;;13.69;68.60
48862;BME280;34681;49.188;-0.374;2023-02-18T04:28:49;102594.94;;;13.57;68.88
48862;BME280;34681;49.188;-0.374;2023-02-18T04:31:15;102584.59;;;13.60;68.95
48862;BME280;34681;49.188;-0.374;2023-02-18T04:33:41;102592.47;;;13.65;68.90
48862;BME280;34681;49.188;-0.374;2023-02-18T04:36:06;102589.75;;;13.76;68.49
48862;BME280;34681;49.188;-0.374;2023-02-18T04:38:32;102592.97;;;13.59;68.73
48862;BME280;34681;49.188;-0.374;2023-02-18T04:40:57;102593.19;;;13.56;68.68
48862;BME280;34681;49.188;-0.374;2023-02-18T04:43:22;102591.06;;;13.48;69.13
48862;BME280;34681;49.188;-0.374;2023-02-18T04:45:48;102597.88;;;13.66;68.71
48862;BME280;34681;49.188;-0.374;2023-02-18T04:48:14;102599.44;;;13.46;68.88
48862;BME280;34681;49.188;-0.374;2023-02-18T04:50:39;102598.00;;;13.30;69.41
48862;BME280;34681;49.188;-0.374;2023-02-18T04:53:04;102590.31;;;13.46;69.54
48862;BME280;34681;49.188;-0.374;2023-02-18T04:55:30;102587.19;;;13.51;69.34
48862;BME280;34681;49.188;-0.374;2023-02-18T04:57:55;102587.06;;;13.41;69.32
48862;BME280;34681;49.188;-0.374;2023-02-18T05:00:20;102581.56;;;13.52;69.20
48862;BME280;34681;49.188;-0.374;2023-02-18T05:02:46;102576.34;;;13.60;69.02
48862;BME280;34681;49.188;-0.374;2023-02-18T05:05:13;102581.22;;;13.68;68.62
48862;BME280;34681;49.188;-0.374;2023-02-18T05:07:38;102586.06;;;13.53;69.09
48862;BME280;34681;49.188;-0.374;2023-02-18T05:10:06;102586.00;;;13.66;68.60
48862;BME280;34681;49.188;-0.374;2023-02-18T05:12:31;102579.50;;;13.67;68.60
48862;BME280;34681;49.188;-0.374;2023-02-18T05:14:57;102575.94;;;13.42;69.07
48862;BME280;34681;49.188;-0.374;2023-02-18T05:17:22;102575.31;;;13.50;69.22
48862;BME280;34681;49.188;-0.374;2023-02-18T05:19:47;102575.81;;;13.55;69.09
48862;BME280;34681;49.188;-0.374;2023-02-18T05:22:13;102575.19;;;13.52;68.94
48862;BME280;34681;49.188;-0.374;2023-02-18T05:24:38;102563.72;;;13.58;68.79
48862;BME280;34681;49.188;-0.374;2023-02-18T05:27:04;102563.97;;;13.66;68.60
48862;BME280;34681;49.188;-0.374;2023-02-18T05:29:29;102567.59;;;13.66;68.48
48862;BME280;34681;49.188;-0.374;2023-02-18T05:31:54;102566.34;;;13.70;68.14
48862;BME280;34681;49.188;-0.374;2023-02-18T05:34:20;102567.84;;;13.63;68.11
48862;BME280;34681;49.188;-0.374;2023-02-18T05:36:45;102562.72;;;13.59;68.60
48862;BME280;34681;49.188;-0.374;2023-02-18T05:39:10;102565.06;;;13.52;68.59
48862;BME280;34681;49.188;-0.374;2023-02-18T05:41:36;102558.22;;;13.69;68.21
48862;BME280;34681;49.188;-0.374;2023-02-18T05:44:01;102562.94;;;13.56;68.25
48862;BME280;34681;49.188;-0.374;2023-02-18T05:46:45;102549.94;;;13.46;68.58
48862;BME280;34681;49.188;-0.374;2023-02-18T05:49:10;102553.06;;;13.53;68.27
48862;BME280;34681;49.188;-0.374;2023-02-18T05:51:36;102556.22;;;13.60;68.09
48862;BME280;34681;49.188;-0.374;2023-02-18T05:54:02;102559.34;;;13.77;67.54
48862;BME280;34681;49.188;-0.374;2023-02-18T05:56:28;102555.47;;;13.58;67.91
48862;BME280;34681;49.188;-0.374;2023-02-18T05:58:53;102541.59;;;13.59;67.85
48862;BME280;34681;49.188;-0.374;2023-02-18T06:01:18;102544.22;;;13.61;68.04
48862;BME280;34681;49.188;-0.374;2023-02-18T06:03:44;102541.69;;;13.46;67.87
48862;BME280;34681;49.188;-0.374;2023-02-18T06:06:09;102538.44;;;13.41;68.40
48862;BME280;34681;49.188;-0.374;2023-02-18T06:08:34;102542.59;;;13.58;67.94
48862;BME280;34681;49.188;-0.374;2023-02-18T06:11:00;102543.84;;;13.65;67.62
48862;BME280;34681;49.188;-0.374;2023-02-18T06:13:26;102544.03;;;13.40;68.03
48862;BME280;34681;49.188;-0.374;2023-02-18T06:15:51;102542.31;;;13.50;67.73
48862;BME280;34681;49.188;-0.374;2023-02-18T06:18:18;102544.75;;;13.19;68.45
48862;BME280;34681;49.188;-0.374;2023-02-18T06:20:43;102541.69;;;13.11;68.51
48862;BME280;34681;49.188;-0.374;2023-02-18T06:23:08;102545.28;;;13.25;68.48
48862;BME280;34681;49.188;-0.374;2023-02-18T06:25:34;102536.78;;;13.39;68.00
48862;BME280;34681;49.188;-0.374;2023-02-18T06:27:59;102538.16;;;13.33;68.25
48862;BME280;34681;49.188;-0.374;2023-02-18T06:30:25;102542.28;;;13.28;68.16
48862;BME280;34681;49.188;-0.374;2023-02-18T06:32:50;102538.66;;;13.03;68.84
48862;BME280;34681;49.188;-0.374;2023-02-18T06:35:15;102537.03;;;13.25;68.29
48862;BME280;34681;49.188;-0.374;2023-02-18T06:37:41;102534.91;;;13.28;67.98
48862;BME280;34681;49.188;-0.374;2023-02-18T06:40:06;102531.03;;;13.31;68.00
48862;BME280;34681;49.188;-0.374;2023-02-18T06:42:32;102536.31;;;13.45;67.39
48862;BME280;34681;49.188;-0.374;2023-02-18T06:44:57;102538.69;;;13.49;67.15
48862;BME280;34681;49.188;-0.374;2023-02-18T06:47:23;102537.19;;;13.45;67.33
48862;BME280;34681;49.188;-0.374;2023-02-18T06:49:48;102545.03;;;13.28;67.86
48862;BME280;34681;49.188;-0.374;2023-02-18T06:52:14;102550.50;;;13.28;68.00
48862;BME280;34681;49.188;-0.374;2023-02-18T06:54:39;102553.16;;;13.40;67.88
48862;BME280;34681;49.188;-0.374;2023-02-18T06:57:04;102547.44;;;13.55;67.71
48862;BME280;34681;49.188;-0.374;2023-02-18T06:59:30;102544.94;;;13.52;67.53
48862;BME280;34681;49.188;-0.374;2023-02-18T07:01:55;102559.72;;;13.73;67.10
48862;BME280;34681;49.188;-0.374;2023-02-18T07:04:20;102553.47;;;13.71;67.16
48862;BME280;34681;49.188;-0.374;2023-02-18T07:06:46;102551.59;;;13.71;66.98
48862;BME280;34681;49.188;-0.374;2023-02-18T07:09:11;102541.59;;;13.59;67.19
48862;BME280;34681;49.188;-0.374;2023-02-18T07:11:37;102558.09;;;13.59;67.30
48862;BME280;34681;49.188;-0.374;2023-02-18T07:14:02;102559.78;;;13.38;67.63
48862;BME280;34681;49.188;-0.374;2023-02-18T07:16:27;102550.44;;;13.63;67.25
48862;BME280;34681;49.188;-0.374;2023-02-18T07:18:53;102550.34;;;13.75;66.77
48862;BME280;34681;49.188;-0.374;2023-02-18T07:21:18;102547.22;;;13.69;67.10
48862;BME280;34681;49.188;-0.374;2023-02-18T07:23:43;102549.72;;;13.61;67.06
48862;BME280;34681;49.188;-0.374;2023-02-18T07:26:11;102557.47;;;13.78;66.72
48862;BME280;34681;49.188;-0.374;2023-02-18T07:28:38;102558.34;;;13.67;67.01
48862;BME280;34681;49.188;-0.374;2023-02-18T07:31:04;102553.94;;;13.65;66.96
48862;BME280;34681;49.188;-0.374;2023-02-18T07:33:30;102566.81;;;13.53;67.44
48862;BME280;34681;49.188;-0.374;2023-02-18T07:35:56;102563.22;;;13.64;67.19
48862;BME280;34681;49.188;-0.374;2023-02-18T07:38:23;102565.81;;;13.54;67.13
48862;BME280;34681;49.188;-0.374;2023-02-18T07:40:49;102558.63;;;13.75;66.82
48862;BME280;34681;49.188;-0.374;2023-02-18T07:43:14;102552.34;;;13.62;66.87
48862;BME280;34681;49.188;-0.374;2023-02-18T07:45:40;102557.59;;;13.65;67.23
48862;BME280;34681;49.188;-0.374;2023-02-18T07:48:06;102561.09;;;13.78;66.85
48862;BME280;34681;49.188;-0.374;2023-02-18T07:50:31;102564.72;;;13.79;66.79
48862;BME280;34681;49.188;-0.374;2023-02-18T07:53:04;102568.34;;;13.80;66.62
48862;BME280;34681;49.188;-0.374;2023-02-18T07:55:30;102560.22;;;13.78;66.80
48862;BME280;34681;49.188;-0.374;2023-02-18T07:58:21;102572.56;;;13.50;67.41
48862;BME280;34681;49.188;-0.374;2023-02-18T08:00:47;102570.22;;;13.68;67.22
48862;BME280;34681;49.188;-0.374;2023-02-18T08:03:18;102577.22;;;13.72;66.85
48862;BME280;34681;49.188;-0.374;2023-02-18T08:05:47;102571.75;;;13.83;66.79
48862;BME280;34681;49.188;-0.374;2023-02-18T08:08:14;102569.25;;;14.02;66.49
48862;BME280;34681;49.188;-0.374;2023-02-18T08:10:41;102580.63;;;13.98;66.20
48862;BME280;34681;49.188;-0.374;2023-02-18T08:13:07;102593.88;;;14.04;66.15
48862;BME280;34681;49.188;-0.374;2023-02-18T08:15:33;102586.25;;;13.96;66.12
48862;BME280;34681;49.188;-0.374;2023-02-18T08:17:58;102589.00;;;13.85;66.85
48862;BME280;34681;49.188;-0.374;2023-02-18T08:20:24;102595.03;;;13.90;66.95
48862;BME280;34681;49.188;-0.374;2023-02-18T08:22:50;102604.16;;;13.91;66.71
48862;BME280;34681;49.188;-0.374;2023-02-18T08:25:15;102600.13;;;14.06;66.36
48862;BME280;34681;49.188;-0.374;2023-02-18T08:27:40;102607.91;;;14.12;66.22
48862;BME280;34681;49.188;-0.374;2023-02-18T08:30:06;102604.66;;;14.07;66.53
48862;BME280;34681;49.188;-0.374;2023-02-18T08:32:32;102610.03;;;14.20;66.22
48862;BME280;34681;49.188;-0.374;2023-02-18T08:34:58;102604.66;;;14.07;66.78
48862;BME280;34681;49.188;-0.374;2023-02-18T08:37:23;102617.31;;;13.41;68.79
48862;BME280;34681;49.188;-0.374;2023-02-18T08:39:49;102602.56;;;13.42;69.22
48862;BME280;34681;49.188;-0.374;2023-02-18T08:42:14;102603.25;;;13.79;68.19
48862;BME280;34681;49.188;-0.374;2023-02-18T08:44:39;102605.41;;;14.09;67.29
48862;BME280;34681;49.188;-0.374;2023-02-18T08:47:05;102602.88;;;14.06;67.36
48862;BME280;34681;49.188;-0.374;2023-02-18T08:49:30;102605.53;;;14.19;67.23
48862;BME280;34681;49.188;-0.374;2023-02-18T08:51:55;102598.53;;;14.48;66.24
48862;BME280;34681;49.188;-0.374;2023-02-18T08:54:21;102599.28;;;14.50;66.30
48862;BME280;34681;49.188;-0.374;2023-02-18T08:56:46;102598.63;;;14.36;66.73
48862;BME280;34681;49.188;-0.374;2023-02-18T08:59:12;102599.28;;;14.50;66.45
48862;BME280;34681;49.188;-0.374;2023-02-18T09:01:37;102593.38;;;14.44;66.37
48862;BME280;34681;49.188;-0.374;2023-02-18T09:04:03;102605.00;;;14.70;66.05
48862;BME280;34681;49.188;-0.374;2023-02-18T09:06:28;102608.84;;;14.78;65.91
48862;BME280;34681;49.188;-0.374;2023-02-18T09:08:53;102601.16;;;14.50;66.22
48862;BME280;34681;49.188;-0.374;2023-02-18T09:11:19;102615.91;;;14.38;66.85
48862;BME280;34681;49.188;-0.374;2023-02-18T09:13:45;102615.31;;;14.56;66.24
48862;BME280;34681;49.188;-0.374;2023-02-18T09:16:13;102619.19;;;14.65;65.94
48862;BME280;34681;49.188;-0.374;2023-02-18T09:18:39;102613.78;;;14.64;65.95
48862;BME280;34681;49.188;-0.374;2023-02-18T09:21:06;102610.03;;;14.65;66.05
48862;BME280;34681;49.188;-0.374;2023-02-18T09:23:34;102621.56;;;14.58;66.24
48862;BME280;34681;49.188;-0.374;2023-02-18T09:26:03;102620.16;;;14.75;65.73
48862;BME280;34681;49.188;-0.374;2023-02-18T09:28:29;102616.47;;;14.86;65.36
48862;BME280;34681;49.188;-0.374;2023-02-18T09:30:54;102618.56;;;14.50;66.75
48862;BME280;34681;49.188;-0.374;2023-02-18T09:33:20;102621.16;;;14.74;66.71
48862;BME280;34681;49.188;-0.374;2023-02-18T09:35:45;102630.06;;;14.67;67.12
48862;BME280;34681;49.188;-0.374;2023-02-18T09:38:13;102621.16;;;14.63;67.64
48862;BME280;34681;49.188;-0.374;2023-02-18T09:40:43;102632.28;;;14.39;68.35
48862;BME280;34681;49.188;-0.374;2023-02-18T09:43:21;102624.00;;;14.84;67.85
48862;BME280;34681;49.188;-0.374;2023-02-18T09:45:50;102626.91;;;14.82;67.91
48862;BME280;34681;49.188;-0.374;2023-02-18T09:48:15;102628.78;;;14.71;68.64
48862;BME280;34681;49.188;-0.374;2023-02-18T09:50:42;102627.38;;;14.87;68.13
48862;BME280;34681;49.188;-0.374;2023-02-18T09:53:12;102626.16;;;15.12;67.58
48862;BME280;34681;49.188;-0.374;2023-02-18T09:55:39;102624.56;;;15.10;67.42
48862;BME280;34681;49.188;-0.374;2023-02-18T09:58:13;102631.88;;;15.32;67.00
48862;BME280;34681;49.188;-0.374;2023-02-18T10:01:05;102626.78;;;15.48;66.29
48862;BME280;34681;49.188;-0.374;2023-02-18T10:03:29;102626.66;;;15.50;66.14
48862;BME280;34681;49.188;-0.374;2023-02-18T10:06:00;102629.75;;;15.77;65.67
48862;BME280;34681;49.188;-0.374;2023-02-18T10:10:54;102619.47;;;15.79;64.22
48862;BME280;34681;49.188;-0.374;2023-02-18T10:13:23;102621.06;;;16.02;64.00
48862;BME280;34681;49.188;-0.374;2023-02-18T10:15:50;102618.66;;;16.19;63.38
48862;BME280;34681;49.188;-0.374;2023-02-18T10:18:22;102617.09;;;15.95;63.01
48862;BME280;34681;49.188;-0.374;2023-02-18T10:20:51;102619.50;;;15.47;63.62
48862;BME280;34681;49.188;-0.374;2023-02-18T10:23:19;102623.91;;;15.70;62.91
48862;BME280;34681;49.188;-0.374;2023-02-18T10:25:45;102621.97;;;15.61;62.74
48862;BME280;34681;49.188;-0.374;2023-02-18T10:28:13;102617.66;;;15.68;62.42
48862;BME280;34681;49.188;-0.374;2023-02-18T10:30:44;102618.94;;;15.64;62.00
48862;BME280;34681;49.188;-0.374;2023-02-18T10:33:48;102613.69;;;15.61;61.20
48862;BME280;34681;49.188;-0.374;2023-02-18T10:36:50;102611.69;;;15.31;61.58
48862;BME280;34681;49.188;-0.374;2023-02-18T10:42:19;102615.03;;;15.67;60.85
48862;BME280;34681;49.188;-0.374;2023-02-18T10:47:44;102609.50;;;16.18;59.63
48862;BME280;34681;49.188;-0.374;2023-02-18T10:50:27;102607.22;;;16.23;59.58
48862;BME280;34681;49.188;-0.374;2023-02-18T10:52:55;102598.91;;;16.14;60.15
48862;BME280;34681;49.188;-0.374;2023-02-18T10:55:35;102611.41;;;16.18;60.52
48862;BME280;34681;49.188;-0.374;2023-02-18T10:58:01;102607.06;;;16.25;60.34
48862;BME280;34681;49.188;-0.374;2023-02-18T11:00:34;102612.81;;;15.61;61.43
48862;BME280;34681;49.188;-0.374;2023-02-18T11:03:15;102605.91;;;15.55;62.27
48862;BME280;34681;49.188;-0.374;2023-02-18T11:05:42;102604.38;;;15.41;62.77
48862;BME280;34681;49.188;-0.374;2023-02-18T11:08:13;102607.72;;;15.45;62.78
48862;BME280;34681;49.188;-0.374;2023-02-18T11:10:41;102597.13;;;15.82;62.23
48862;BME280;34681;49.188;-0.374;2023-02-18T11:13:09;102601.72;;;16.33;61.51
48862;BME280;34681;49.188;-0.374;2023-02-18T11:15:36;102597.75;;;16.56;60.55
48862;BME280;34681;49.188;-0.374;2023-02-18T11:20:57;102595.09;;;17.05;59.09
48862;BME280;34681;49.188;-0.374;2023-02-18T11:23:23;102593.19;;;17.15;58.70
48862;BME280;34681;49.188;-0.374;2023-02-18T11:30:53;102594.78;;;17.37;57.62
48862;BME280;34681;49.188;-0.374;2023-02-18T11:33:23;102594.06;;;17.16;58.00
48862;BME280;34681;49.188;-0.374;2023-02-18T11:35:56;102595.06;;;16.95;58.23
48862;BME280;34681;49.188;-0.374;2023-02-18T11:38:25;102592.75;;;17.29;58.46
48862;BME280;34681;49.188;-0.374;2023-02-18T11:41:07;102603.38;;;17.73;57.42
48862;BME280;34681;49.188;-0.374;2023-02-18T11:43:33;102585.34;;;17.30;57.39
48862;BME280;34681;49.188;-0.374;2023-02-18T11:46:10;102593.06;;;17.07;58.71
48862;BME280;34681;49.188;-0.374;2023-02-18T11:48:36;102591.00;;;16.99;58.67
48862;BME280;34681;49.188;-0.374;2023-02-18T11:51:02;102587.53;;;17.07;58.52
48862;BME280;34681;49.188;-0.374;2023-02-18T11:55:56;102586.19;;;17.21;58.16
48862;BME280;34681;49.188;-0.374;2023-02-18T11:58:22;102588.38;;;17.17;58.42
48862;BME280;34681;49.188;-0.374;2023-02-18T12:00:49;102585.63;;;16.98;58.57
48862;BME280;34681;49.188;-0.374;2023-02-18T12:03:30;102582.84;;;16.88;58.99
48862;BME280;34681;49.188;-0.374;2023-02-18T12:06:02;102581.53;;;16.73;59.00
48862;BME280;34681;49.188;-0.374;2023-02-18T12:08:32;102584.09;;;16.65;59.60
48862;BME280;34681;49.188;-0.374;2023-02-18T12:11:03;102585.16;;;16.73;59.39
48862;BME280;34681;49.188;-0.374;2023-02-18T12:13:52;102582.19;;;16.55;60.08
48862;BME280;34681;49.188;-0.374;2023-02-18T12:16:48;102570.84;;;16.18;60.78
48862;BME280;34681;49.188;-0.374;2023-02-18T12:24:36;102566.47;;;16.16;61.09
48862;BME280;34681;49.188;-0.374;2023-02-18T12:27:20;102565.66;;;16.25;60.93
48862;BME280;34681;49.188;-0.374;2023-02-18T12:41:03;102554.03;;;16.31;60.36
48862;BME280;34681;49.188;-0.374;2023-02-18T12:46:22;102553.59;;;16.95;59.11
48862;BME280;34681;49.188;-0.374;2023-02-18T13:05:27;102547.25;;;16.54;60.34
48862;BME280;34681;49.188;-0.374;2023-02-18T13:08:17;102555.53;;;16.54;59.92
48862;BME280;34681;49.188;-0.374;2023-02-18T13:11:18;102555.31;;;16.27;60.50
48862;BME280;34681;49.188;-0.374;2023-02-18T13:14:13;102545.97;;;16.68;59.61
48862;BME280;34681;49.188;-0.374;2023-02-18T13:16:43;102548.34;;;16.92;59.35
48862;BME280;34681;49.188;-0.374;2023-02-18T13:21:36;102538.22;;;16.52;60.07
48862;BME280;34681;49.188;-0.374;2023-02-18T13:24:08;102542.22;;;16.79;59.72
48862;BME280;34681;49.188;-0.374;2023-02-18T13:26:35;102537.88;;;16.86;59.27
48862;BME280;34681;49.188;-0.374;2023-02-18T13:29:30;102534.59;;;16.52;60.10
48862;BME280;34681;49.188;-0.374;2023-02-18T13:34:39;102531.56;;;16.65;59.82
48862;BME280;34681;49.188;-0.374;2023-02-18T13:37:29;102527.69;;;16.87;59.41
48862;BME280;34681;49.188;-0.374;2023-02-18T13:39:57;102523.47;;;16.73;59.78
48862;BME280;34681;49.188;-0.374;2023-02-18T13:42:33;102527.09;;;16.73;59.90
48862;BME280;34681;49.188;-0.374;2023-02-18T13:47:36;102522.03;;;16.88;59.61
48862;BME280;34681;49.188;-0.374;2023-02-18T13:52:49;102522.13;;;17.25;59.07
48862;BME280;34681;49.188;-0.374;2023-02-18T13:55:24;102516.16;;;17.20;59.31
48862;BME280;34681;49.188;-0.374;2023-02-18T13:57:53;102509.91;;;17.28;58.96
48862;BME280;34681;49.188;-0.374;2023-02-18T14:00:24;102513.66;;;17.46;58.55
48862;BME280;34681;49.188;-0.374;2023-02-18T14:03:16;102509.59;;;17.40;58.42
48862;BME280;34681;49.188;-0.374;2023-02-18T14:05:43;102516.06;;;17.78;57.71
48862;BME280;34681;49.188;-0.374;2023-02-18T14:08:14;102518.50;;;17.91;57.59
48862;BME280;34681;49.188;-0.374;2023-02-18T14:10:40;102507.91;;;17.67;57.80
48862;BME280;34681;49.188;-0.374;2023-02-18T14:13:24;102518.06;;;17.86;56.95
48862;BME280;34681;49.188;-0.374;2023-02-18T14:15:54;102510.31;;;17.42;58.02
48862;BME280;34681;49.188;-0.374;2023-02-18T14:18:25;102509.84;;;17.57;57.53
48862;BME280;34681;49.188;-0.374;2023-02-18T14:20:50;102507.59;;;17.13;58.40
48862;BME280;34681;49.188;-0.374;2023-02-18T14:25:57;102506.88;;;16.82;59.16
48862;BME280;34681;49.188;-0.374;2023-02-18T14:33:30;102493.88;;;16.54;60.36
48862;BME280;34681;49.188;-0.374;2023-02-18T14:49:54;102480.38;;;16.01;61.57
48862;BME280;34681;49.188;-0.374;2023-02-18T14:54:55;102475.94;;;15.79;62.02
48862;BME280;34681;49.188;-0.374;2023-02-18T14:57:32;102471.47;;;15.57;62.80